메인 페이지
METAR-TAF:

METAR-TAF

공항 :

로건 국제공항

보스턴, 매사추세츠, 미국

위도: 42-21-38N, 경도: 071-00-38W, 고도: 6m

현재 날씨관측

예보는 33분 전, 06:54시(UTC)에 발표되었습니다.
남서11kt
온도 17°C
습도 82%
기압 1015 hPa
시정: 16.1km
고도 1200ft 상공 구름 많음
고도 1700ft 상공 구름 많음
고도 2900ft 상공 흐림

METAR: KBOS 210654Z 22011KT 10SM BKN012 BKN017 OVC029 17/14 A2996 RMK AO2 WSHFT 0554 RAE39 SLP144 P0002 T01670144

시각: 03:27 (07:27 UTC)

예보

예보는 1 시간 48분 전, 05:39시(UTC)에 발표되었습니다.
예보 대상 시간: 21일 06시부터 22일 12시까지 (UTC)
12kt, 순간 최대 풍속 19kt
시정: 10km
고도 1000ft 상공 흐림
약한소나기
21일 0900시부터 (UTC)
7kt
시정: 10km
고도 1500ft 상공 흐림
시계 내 소나기
21일 1400시부터 (UTC)
동남동8kt
시정: 10km
고도 1500ft 상공 흐림
21일 2300시부터 (UTC)
7kt
시정: 10km
고도 1500ft 상공 흐림
22일 0300시부터 (UTC)
남서5kt
시정: 4.8km
고도 2000ft 상공 구름 많음
박무
22일 0600시부터 (UTC)
남서3kt
시정: 10km
고도 15000ft 상공 구름 많음

TAF: KBOS 210539Z 2106/2212 17012G19KT P6SM -SHRA OVC010 FM210900 17007KT P6SM VCSH OVC015 FM211400 12008KT P6SM OVC015 FM212300 17007KT P6SM OVC015 FM220300 23005KT 3SM BR BKN020 FM220600 22003KT P6SM BKN150

4,000개 이상의 공항 관측 자료 및 예보 (METAR 및 TAF 보고).

지도상에서 검색 가능한 기상관측소가 노란 점과 빨간 점으로 표시되어 있습니다.

기상관측소 명을 보려면 표시 위로 마우스를 이동하세요.

날씨 관측과 예보를 보려면 클릭하세요.

지도 변경 : 확대하려면 엑스 표시가 있는 녹색 버튼, 축소하려면 빼기 표시가 있는 녹색 버튼, 다음 페이지의 지도를 보려면 녹색 화살표를 클릭하세요.


METAR-TAF: